createdAt,value
2022-10-20T00:01:32.675Z,89.50
2022-10-20T00:04:05.122Z,89.45
2022-10-20T00:06:36.350Z,90.41
2022-10-20T00:09:07.694Z,89.69
2022-10-20T00:11:37.383Z,89.66
2022-10-20T00:14:07.869Z,89.22
2022-10-20T00:16:40.184Z,89.50
2022-10-20T00:19:12.661Z,89.70
2022-10-20T00:21:42.297Z,89.40
2022-10-20T00:24:11.975Z,89.12
2022-10-20T00:26:41.693Z,89.43
2022-10-20T00:29:11.367Z,90.09
2022-10-20T00:31:41.031Z,89.79
2022-10-20T00:34:13.836Z,89.69
2022-10-20T00:36:46.304Z,89.70
2022-10-20T00:39:18.593Z,89.14
2022-10-20T00:41:48.218Z,89.20
2022-10-20T00:44:47.899Z,88.48
2022-10-20T00:47:22.304Z,89.04
2022-10-20T00:49:55.285Z,89.78
2022-10-20T00:52:25.782Z,89.33
2022-10-20T00:54:55.511Z,89.42
2022-10-20T00:57:25.243Z,89.40
2022-10-20T00:59:55.024Z,89.52
2022-10-20T01:02:24.729Z,89.47
2022-10-20T01:04:57.179Z,89.46
2022-10-20T01:07:26.881Z,90.12
2022-10-20T01:09:57.158Z,89.72
2022-10-20T01:12:36.634Z,88.68
2022-10-20T01:15:15.225Z,88.80
2022-10-20T01:17:54.750Z,88.85
2022-10-20T01:21:07.844Z,88.35
2022-10-20T01:23:56.812Z,87.77
2022-10-20T01:26:46.634Z,88.56
2022-10-20T01:29:27.750Z,88.14
2022-10-20T01:32:08.176Z,88.22
2022-10-20T01:34:46.910Z,88.59
2022-10-20T01:37:40.535Z,88.65
2022-10-20T01:40:23.418Z,88.84
2022-10-20T01:42:56.349Z,89.49
2022-10-20T01:45:32.819Z,88.92
2022-10-20T01:48:08.083Z,88.51
2022-10-20T01:50:39.741Z,88.15
2022-10-20T01:53:10.145Z,88.45
2022-10-20T01:55:41.264Z,88.40
2022-10-20T01:58:32.721Z,88.63
2022-10-20T02:01:15.614Z,87.88
2022-10-20T02:03:52.297Z,87.41
2022-10-20T02:06:32.857Z,87.51
2022-10-20T02:09:06.257Z,87.87
2022-10-20T02:11:46.498Z,88.71
2022-10-20T02:14:20.088Z,88.89
2022-10-20T02:16:56.064Z,88.92
2022-10-20T02:19:29.363Z,88.39
2022-10-20T02:22:00.306Z,89.04
2022-10-20T02:24:34.993Z,89.54
2022-10-20T02:27:08.353Z,90.02
2022-10-20T02:29:42.910Z,90.40
2022-10-20T02:32:16.080Z,90.00
2022-10-20T02:34:46.383Z,89.54
2022-10-20T02:40:07.096Z,88.87
2022-10-20T02:42:37.496Z,88.27
2022-10-20T02:45:08.111Z,90.38
2022-10-20T02:47:40.390Z,90.39
2022-10-20T02:50:11.515Z,91.77
2022-10-20T02:52:41.490Z,91.77
2022-10-20T02:55:11.827Z,90.91
2022-10-20T02:57:41.500Z,90.01
2022-10-20T03:00:12.789Z,89.74
2022-10-20T03:02:45.085Z,90.55
2022-10-20T03:05:14.771Z,90.39
2022-10-20T03:07:44.475Z,90.58
2022-10-20T03:10:14.141Z,89.34
2022-10-20T03:12:43.844Z,90.42
2022-10-20T03:15:14.658Z,89.54
2022-10-20T03:17:46.963Z,89.67
2022-10-20T03:20:16.634Z,91.00
2022-10-20T03:22:46.317Z,91.27
2022-10-20T03:25:15.970Z,90.99
2022-10-20T03:27:45.682Z,90.54
2022-10-20T03:30:15.354Z,90.93
2022-10-20T03:32:47.766Z,90.97
2022-10-20T03:35:17.673Z,90.00
2022-10-20T03:37:47.324Z,90.76
2022-10-20T03:40:17.278Z,92.08
2022-10-20T03:42:46.966Z,92.09
2022-10-20T03:45:18.658Z,91.89
2022-10-20T03:47:51.563Z,91.76
2022-10-20T03:50:21.248Z,91.36
2022-10-20T03:52:51.108Z,91.73
2022-10-20T03:55:22.075Z,92.20
2022-10-20T03:57:51.733Z,92.59
2022-10-20T04:00:21.932Z,91.72
2022-10-20T04:02:54.411Z,92.11
2022-10-20T04:05:25.004Z,91.98
2022-10-20T04:07:54.658Z,91.93
2022-10-20T04:10:24.391Z,92.01
2022-10-20T04:12:54.292Z,91.34
2022-10-20T04:15:24.026Z,91.37
2022-10-20T04:17:56.325Z,91.49
2022-10-20T04:20:26.116Z,91.69
2022-10-20T04:22:55.769Z,91.37
2022-10-20T04:25:25.426Z,91.87
2022-10-20T04:27:55.128Z,92.36
2022-10-20T04:30:24.845Z,93.14
2022-10-20T04:32:57.413Z,92.67
2022-10-20T04:35:27.027Z,93.03
2022-10-20T04:37:57.481Z,93.65
2022-10-20T04:40:27.165Z,92.97
2022-10-20T04:42:56.912Z,92.23
2022-10-20T04:45:26.636Z,92.75
2022-10-20T04:47:58.919Z,92.85
2022-10-20T04:50:28.624Z,93.43
2022-10-20T04:52:58.341Z,93.74
2022-10-20T04:55:28.106Z,93.72
2022-10-20T04:57:57.831Z,93.53
2022-10-20T05:00:27.507Z,92.36
2022-10-20T05:03:00.672Z,93.14
2022-10-20T05:05:30.392Z,92.81
2022-10-20T05:08:00.169Z,92.68
2022-10-20T05:10:33.139Z,92.82
2022-10-20T05:13:06.181Z,93.78
2022-10-20T05:15:35.840Z,94.46
2022-10-20T05:18:08.086Z,95.08
2022-10-20T05:20:45.844Z,94.03
2022-10-20T05:23:15.711Z,94.68
2022-10-20T05:25:45.505Z,94.70
2022-10-20T05:28:15.436Z,94.10
2022-10-20T05:30:45.387Z,93.79
2022-10-20T05:33:17.690Z,93.94
2022-10-20T05:35:47.429Z,93.87
2022-10-20T05:38:17.079Z,93.34
2022-10-20T05:40:46.674Z,93.85
2022-10-20T05:43:17.420Z,93.48
2022-10-20T05:45:47.303Z,93.70
2022-10-20T05:48:19.544Z,93.94
2022-10-20T05:50:49.169Z,95.10
2022-10-20T05:53:18.802Z,94.10
2022-10-20T05:55:48.398Z,93.85
2022-10-20T05:58:19.616Z,94.59
2022-10-20T06:00:53.844Z,94.14
2022-10-20T06:03:28.301Z,95.12
2022-10-20T06:06:00.482Z,94.94
2022-10-20T06:08:32.996Z,94.59
2022-10-20T06:11:06.927Z,94.52
2022-10-20T06:13:36.957Z,95.39
2022-10-20T06:16:07.757Z,95.34
2022-10-20T06:18:40.759Z,94.40
2022-10-20T06:21:13.014Z,95.13
2022-10-20T06:23:42.833Z,94.91
2022-10-20T06:26:17.536Z,95.28
2022-10-20T06:28:48.941Z,96.98
2022-10-20T06:31:20.879Z,95.72
2022-10-20T06:33:54.082Z,97.23
2022-10-20T06:36:25.356Z,96.30
2022-10-20T06:38:57.094Z,96.16
2022-10-20T06:41:27.872Z,97.08
2022-10-20T06:43:59.567Z,97.34
2022-10-20T06:46:30.979Z,96.69
2022-10-20T06:49:04.025Z,96.41
2022-10-20T06:51:34.054Z,95.50
2022-10-20T06:54:04.302Z,96.00
2022-10-20T06:56:36.088Z,94.65
2022-10-20T06:59:06.358Z,94.35
2022-10-20T07:01:37.753Z,94.83
2022-10-20T07:04:13.304Z,95.94
2022-10-20T07:06:44.539Z,96.75
2022-10-20T07:09:17.609Z,95.58
2022-10-20T07:11:47.506Z,94.20
2022-10-20T07:14:17.440Z,93.51
2022-10-20T07:16:47.152Z,92.19
2022-10-20T07:19:19.457Z,90.23
2022-10-20T07:21:49.271Z,89.74
2022-10-20T07:24:19.076Z,89.97
2022-10-20T07:26:48.953Z,88.66
2022-10-20T07:29:20.276Z,87.76
2022-10-20T07:31:51.290Z,89.35
2022-10-20T07:34:26.800Z,89.43
2022-10-20T07:36:57.975Z,90.07
2022-10-20T07:39:28.577Z,90.29
2022-10-20T07:41:58.312Z,91.92
2022-10-20T07:44:27.957Z,91.67
2022-10-20T07:46:57.752Z,91.03
2022-10-20T07:49:45.577Z,89.09
2022-10-20T07:52:16.821Z,88.10
2022-10-20T07:54:46.882Z,86.41
2022-10-20T07:57:16.594Z,84.57
2022-10-20T07:59:46.406Z,84.73
2022-10-20T08:02:16.614Z,85.03
2022-10-20T08:04:49.002Z,82.05
2022-10-20T08:07:19.068Z,83.95
2022-10-20T08:09:48.767Z,81.42
2022-10-20T08:12:18.490Z,80.70
2022-10-20T08:14:48.283Z,78.86
2022-10-20T08:17:17.947Z,78.48
2022-10-20T08:20:06.154Z,78.92
2022-10-20T08:22:36.089Z,80.56
2022-10-20T08:25:06.483Z,78.19
2022-10-20T08:27:36.176Z,76.82
2022-10-20T08:30:22.962Z,75.69
2022-10-20T08:32:54.637Z,76.36
2022-10-20T08:35:27.014Z,77.37
2022-10-20T08:37:57.462Z,76.78
2022-10-20T08:40:28.911Z,79.01
2022-10-20T08:42:58.899Z,78.66
2022-10-20T08:45:32.723Z,78.41
2022-10-20T08:48:06.127Z,79.85
2022-10-20T08:50:39.237Z,79.18
2022-10-20T08:53:11.924Z,79.46
2022-10-20T08:55:42.259Z,80.00
2022-10-20T08:58:16.596Z,80.81
2022-10-20T09:00:47.669Z,80.55
2022-10-20T09:03:22.038Z,79.80
2022-10-20T09:05:59.455Z,79.02
2022-10-20T09:08:32.653Z,78.46
2022-10-20T09:11:03.507Z,78.01
2022-10-20T09:13:35.647Z,78.20
2022-10-20T09:16:09.265Z,78.25
2022-10-20T09:18:39.099Z,77.16
2022-10-20T09:21:16.368Z,76.75
2022-10-20T09:23:48.598Z,77.80
2022-10-20T09:26:30.913Z,77.87
2022-10-20T09:29:14.221Z,76.61
2022-10-20T09:31:46.347Z,76.45
2022-10-20T09:34:27.698Z,75.76
2022-10-20T09:37:05.697Z,76.40
2022-10-20T09:39:45.473Z,76.34
2022-10-20T09:42:17.972Z,75.90
2022-10-20T09:44:52.744Z,75.69
2022-10-20T09:47:23.580Z,75.35
2022-10-20T09:50:01.188Z,75.42
2022-10-20T09:52:44.763Z,75.79
2022-10-20T09:55:30.073Z,75.55
2022-10-20T09:58:02.997Z,76.59
2022-10-20T10:00:37.939Z,75.94
2022-10-20T10:03:14.581Z,77.20
2022-10-20T10:05:44.303Z,77.54
2022-10-20T10:08:20.125Z,77.27
2022-10-20T10:11:02.080Z,77.17
2022-10-20T10:13:34.010Z,77.39
2022-10-20T10:16:09.944Z,78.41
2022-10-20T10:18:44.212Z,79.13
2022-10-20T10:21:18.925Z,79.33
2022-10-20T10:23:58.858Z,79.43
2022-10-20T10:26:46.773Z,79.93
2022-10-20T10:29:27.345Z,80.67
2022-10-20T10:32:03.392Z,80.54
2022-10-20T10:34:42.762Z,78.58
2022-10-20T10:37:17.403Z,77.59
2022-10-20T10:39:50.130Z,74.94
2022-10-20T10:42:39.841Z,73.84
2022-10-20T10:45:22.392Z,73.08
2022-10-20T10:48:18.969Z,73.23
2022-10-20T10:50:56.000Z,75.28
2022-10-20T10:53:46.577Z,77.33
2022-10-20T10:56:32.443Z,75.61
2022-10-20T10:59:08.646Z,75.52
2022-10-20T11:01:54.133Z,75.49
2022-10-20T11:04:52.544Z,76.10
2022-10-20T11:07:33.340Z,77.72
2022-10-20T11:10:12.986Z,76.99
2022-10-20T11:13:10.198Z,78.95
2022-10-20T11:15:53.804Z,79.85
2022-10-20T11:18:45.020Z,81.66
2022-10-20T11:21:25.599Z,81.23
2022-10-20T11:24:20.615Z,80.68
2022-10-20T11:26:54.627Z,81.95
2022-10-20T11:29:33.141Z,81.33
2022-10-20T11:32:13.298Z,81.56
2022-10-20T11:34:53.039Z,81.85
2022-10-20T11:37:28.507Z,82.12
2022-10-20T11:40:07.565Z,81.56
2022-10-20T11:42:44.553Z,82.33
2022-10-20T11:45:34.558Z,81.93
2022-10-20T11:48:15.145Z,81.12
2022-10-20T11:50:51.305Z,81.73
2022-10-20T11:53:39.905Z,80.96
2022-10-20T11:56:43.543Z,79.89
2022-10-20T11:59:48.242Z,82.34
2022-10-20T12:02:47.091Z,81.61
2022-10-20T12:05:43.916Z,83.60
2022-10-20T12:08:37.574Z,82.19
2022-10-20T12:11:16.467Z,83.46
2022-10-20T12:14:00.629Z,82.96
2022-10-20T12:17:00.388Z,83.52
2022-10-20T12:19:33.882Z,83.62
2022-10-20T12:22:05.394Z,83.37
2022-10-20T12:24:39.452Z,84.51
2022-10-20T12:27:21.512Z,84.10
2022-10-20T12:29:56.979Z,84.93
2022-10-20T12:32:37.740Z,82.79
2022-10-20T12:35:30.721Z,83.40
2022-10-20T12:38:02.523Z,83.88
2022-10-20T12:40:35.285Z,83.94
2022-10-20T12:43:05.101Z,84.43
2022-10-20T12:45:42.997Z,85.02
2022-10-20T12:48:21.985Z,85.61
2022-10-20T12:50:55.594Z,85.70
2022-10-20T12:53:28.944Z,85.26
2022-10-20T12:56:02.359Z,85.71
2022-10-20T12:58:34.393Z,85.55
2022-10-20T13:01:13.871Z,85.91
2022-10-20T13:03:47.109Z,86.33
2022-10-20T13:06:47.499Z,86.50
2022-10-20T13:09:26.871Z,86.70
2022-10-20T13:12:06.046Z,87.60
2022-10-20T13:14:51.451Z,89.63
2022-10-20T13:17:33.685Z,90.73
2022-10-20T13:20:10.176Z,92.21
2022-10-20T13:22:48.531Z,93.63
2022-10-20T13:25:38.316Z,93.02
2022-10-20T13:28:10.645Z,94.35
2022-10-20T13:30:53.486Z,94.04
2022-10-20T13:33:38.861Z,93.90
2022-10-20T13:36:18.585Z,93.17
2022-10-20T13:38:57.004Z,94.78
2022-10-20T13:41:37.006Z,96.06
2022-10-20T13:44:16.602Z,94.49
2022-10-20T13:46:58.358Z,92.66
2022-10-20T13:49:48.277Z,92.34
2022-10-20T13:52:21.697Z,91.34
2022-10-20T13:54:55.137Z,91.65
2022-10-20T13:57:30.403Z,92.28
2022-10-20T14:00:02.528Z,92.49
2022-10-20T14:02:35.193Z,92.49
2022-10-20T14:05:08.141Z,93.64
2022-10-20T14:07:42.940Z,93.44
2022-10-20T14:10:28.027Z,94.15
2022-10-20T14:12:59.127Z,92.91
2022-10-20T14:15:35.822Z,93.17
2022-10-20T14:18:07.884Z,94.28
2022-10-20T14:20:41.934Z,94.01
2022-10-20T14:23:14.197Z,94.19
2022-10-20T14:25:48.069Z,94.43
2022-10-20T14:28:22.573Z,94.38
2022-10-20T14:30:54.506Z,93.82
2022-10-20T14:33:24.406Z,93.39
2022-10-20T14:35:56.526Z,92.96
2022-10-20T14:38:38.990Z,93.60
2022-10-20T14:41:12.027Z,96.31
2022-10-20T14:43:46.221Z,94.98
2022-10-20T14:46:25.415Z,93.51
2022-10-20T14:48:55.234Z,93.56
2022-10-20T14:51:40.370Z,93.95
2022-10-20T14:54:17.916Z,93.09
2022-10-20T14:56:52.343Z,92.84
2022-10-20T14:59:24.712Z,93.11
2022-10-20T15:02:08.828Z,93.52
2022-10-20T15:04:39.958Z,93.79
2022-10-20T15:07:16.317Z,92.96
2022-10-20T15:09:48.176Z,93.56
2022-10-20T15:12:22.934Z,93.82
2022-10-20T15:14:54.413Z,93.99
2022-10-20T15:17:35.166Z,94.64
2022-10-20T15:20:37.568Z,94.16
2022-10-20T15:23:11.259Z,94.91
2022-10-20T15:25:48.453Z,93.84
2022-10-20T15:28:29.750Z,94.64
2022-10-20T15:31:00.035Z,95.02
2022-10-20T15:33:30.127Z,94.89
2022-10-20T15:36:01.796Z,95.48
2022-10-20T15:38:31.733Z,98.68
2022-10-20T15:41:03.620Z,99.00
2022-10-20T15:43:35.938Z,98.66
2022-10-20T15:46:06.098Z,98.63
2022-10-20T15:48:35.842Z,97.46
2022-10-20T15:51:06.150Z,96.57
2022-10-20T15:53:35.894Z,97.49
2022-10-20T15:56:05.663Z,99.44
2022-10-20T15:58:39.769Z,98.54
2022-10-20T16:01:10.396Z,98.34
2022-10-20T16:03:41.463Z,98.81
2022-10-20T16:06:13.661Z,99.21
2022-10-20T16:08:43.493Z,98.46
2022-10-20T16:11:14.747Z,97.70
2022-10-20T16:13:47.222Z,98.03
2022-10-20T16:16:18.906Z,100.00
2022-10-20T16:18:49.163Z,99.03
2022-10-20T16:21:18.860Z,97.62
2022-10-20T16:23:48.501Z,97.12
2022-10-20T16:26:18.159Z,97.17
2022-10-20T16:28:50.806Z,96.06
2022-10-20T16:31:21.134Z,96.72
2022-10-20T16:33:50.941Z,97.74
2022-10-20T16:36:21.880Z,99.43
2022-10-20T16:38:51.613Z,98.33
2022-10-20T16:41:21.393Z,98.76
2022-10-20T16:43:55.400Z,97.43
2022-10-20T16:46:29.012Z,96.78
2022-10-20T16:48:58.809Z,96.26
2022-10-20T16:51:28.523Z,97.32
2022-10-20T16:54:03.016Z,97.78
2022-10-20T16:56:32.942Z,97.74
2022-10-20T16:59:05.500Z,97.53
2022-10-20T17:01:35.127Z,96.77
2022-10-20T17:04:05.070Z,96.40
2022-10-20T17:06:35.097Z,97.15
2022-10-20T17:09:04.827Z,97.93
2022-10-20T17:11:35.803Z,98.09
2022-10-20T17:14:08.115Z,97.51
2022-10-20T17:16:39.875Z,98.22
2022-10-20T17:19:09.850Z,97.29
2022-10-20T17:21:39.571Z,96.45
2022-10-20T17:24:13.155Z,97.65
2022-10-20T17:26:43.808Z,97.70
2022-10-20T17:29:16.128Z,96.76
2022-10-20T17:31:45.814Z,96.34
2022-10-20T17:34:15.537Z,96.63
2022-10-20T17:36:45.246Z,98.27
2022-10-20T17:39:18.076Z,97.35
2022-10-20T17:41:49.875Z,96.88
2022-10-20T17:44:26.711Z,96.62
2022-10-20T17:46:56.591Z,97.91
2022-10-20T17:49:26.168Z,98.69
2022-10-20T17:51:56.459Z,100.00
2022-10-20T17:54:26.241Z,98.62
2022-10-20T17:56:55.947Z,98.24
2022-10-20T17:59:28.266Z,97.62
2022-10-20T18:01:58.744Z,98.36
2022-10-20T18:04:28.480Z,99.28
2022-10-20T18:06:58.132Z,100.00
2022-10-20T18:09:27.722Z,98.27
2022-10-20T18:11:57.385Z,99.75
2022-10-20T18:14:29.684Z,99.31
2022-10-20T18:16:59.455Z,98.10
2022-10-20T18:19:29.424Z,97.15
2022-10-20T18:21:59.245Z,97.43
2022-10-20T18:24:28.866Z,97.86
2022-10-20T18:26:58.758Z,98.15
2022-10-20T18:29:31.017Z,96.46
2022-10-20T18:32:00.858Z,97.13
2022-10-20T18:34:30.481Z,97.47
2022-10-20T18:37:03.580Z,97.70
2022-10-20T18:39:34.293Z,100.00
2022-10-20T18:42:04.087Z,100.00
2022-10-20T18:44:36.422Z,99.97
2022-10-20T18:47:06.154Z,100.00
2022-10-20T18:49:36.356Z,100.00
2022-10-20T18:52:06.337Z,100.00
2022-10-20T18:54:36.045Z,100.00
2022-10-20T18:57:06.935Z,100.00
2022-10-20T18:59:39.360Z,100.00
2022-10-20T19:02:09.316Z,100.00
2022-10-20T19:04:38.945Z,100.00
2022-10-20T19:07:08.838Z,100.00
2022-10-20T19:09:38.723Z,100.00
2022-10-20T19:12:10.579Z,100.00
2022-10-20T19:14:43.176Z,100.00
2022-10-20T19:17:12.886Z,100.00
2022-10-20T19:19:44.694Z,100.00
2022-10-20T19:22:14.741Z,100.00
2022-10-20T19:24:44.554Z,100.00
2022-10-20T19:27:26.173Z,100.00
2022-10-20T19:30:01.074Z,100.00
2022-10-20T19:32:30.799Z,100.00
2022-10-20T19:35:00.707Z,100.00
2022-10-20T19:37:30.394Z,100.00
2022-10-20T19:40:00.532Z,100.00
2022-10-20T19:42:30.268Z,100.00
2022-10-20T19:45:02.679Z,100.00
2022-10-20T19:47:32.373Z,100.00
2022-10-20T19:50:02.191Z,100.00
2022-10-20T19:52:31.902Z,100.00
2022-10-20T19:55:01.692Z,100.00
2022-10-20T19:57:31.420Z,100.00
2022-10-20T20:00:03.696Z,100.00
2022-10-20T20:02:33.426Z,100.00
2022-10-20T20:05:03.396Z,100.00
2022-10-20T20:07:33.163Z,100.00
2022-10-20T20:10:02.821Z,100.00
2022-10-20T20:12:32.673Z,100.00
2022-10-20T20:15:05.024Z,100.00
2022-10-20T20:17:35.029Z,100.00
2022-10-20T20:20:04.957Z,100.00
2022-10-20T20:22:34.720Z,100.00
2022-10-20T20:25:04.499Z,100.00
2022-10-20T20:27:34.234Z,100.00
2022-10-20T20:30:07.565Z,100.00
2022-10-20T20:32:38.634Z,100.00
2022-10-20T20:35:11.381Z,100.00
2022-10-20T20:37:41.193Z,100.00
2022-10-20T20:40:12.037Z,100.00
2022-10-20T20:42:41.789Z,100.00
2022-10-20T20:45:14.348Z,100.00
2022-10-20T20:47:46.835Z,100.00
2022-10-20T20:50:16.809Z,100.00
2022-10-20T20:52:46.690Z,100.00
2022-10-20T20:55:16.586Z,100.00
2022-10-20T20:57:46.325Z,100.00
2022-10-20T21:00:19.477Z,100.00
2022-10-20T21:02:50.079Z,100.00
2022-10-20T21:05:20.047Z,100.00
2022-10-20T21:07:49.852Z,100.00
2022-10-20T21:10:19.815Z,100.00
2022-10-20T21:12:49.618Z,100.00
2022-10-20T21:15:22.184Z,100.00
2022-10-20T21:17:52.899Z,100.00
2022-10-20T21:20:22.619Z,100.00
2022-10-20T21:22:52.294Z,100.00
2022-10-20T21:25:22.081Z,100.00
2022-10-20T21:27:51.822Z,100.00
2022-10-20T21:30:24.214Z,100.00
2022-10-20T21:32:53.956Z,100.00
2022-10-20T21:35:23.689Z,100.00
2022-10-20T21:37:53.408Z,100.00
2022-10-20T21:40:23.084Z,100.00
2022-10-20T21:42:52.777Z,100.00
2022-10-20T21:45:25.000Z,100.00
2022-10-20T21:47:57.661Z,100.00
2022-10-20T21:50:27.431Z,100.00
2022-10-20T21:52:57.192Z,100.00
2022-10-20T21:55:27.005Z,100.00
2022-10-20T21:57:56.760Z,100.00
2022-10-20T22:00:29.052Z,100.00
2022-10-20T22:03:00.356Z,100.00
2022-10-20T22:05:30.075Z,100.00
2022-10-20T22:07:59.719Z,100.00
2022-10-20T22:10:29.710Z,100.00
2022-10-20T22:12:59.442Z,100.00
2022-10-20T22:15:31.826Z,100.00
2022-10-20T22:18:01.414Z,100.00
2022-10-20T22:20:31.019Z,100.00
2022-10-20T22:23:02.778Z,100.00
2022-10-20T22:25:32.652Z,100.00
2022-10-20T22:28:02.233Z,100.00
2022-10-20T22:30:34.476Z,100.00
2022-10-20T22:33:04.653Z,100.00
2022-10-20T22:35:34.326Z,100.00
2022-10-20T22:38:04.001Z,100.00
2022-10-20T22:40:33.637Z,100.00
2022-10-20T22:43:03.509Z,100.00
2022-10-20T22:45:35.918Z,100.00
2022-10-20T22:48:05.646Z,100.00
2022-10-20T22:50:35.330Z,100.00
2022-10-20T22:53:04.993Z,100.00
2022-10-20T22:55:34.665Z,100.00
2022-10-20T22:58:04.397Z,100.00
2022-10-20T23:00:36.732Z,100.00
2022-10-20T23:03:06.703Z,100.00
2022-10-20T23:05:36.496Z,100.00
2022-10-20T23:08:06.410Z,100.00
2022-10-20T23:10:36.342Z,100.00
2022-10-20T23:13:06.102Z,100.00
2022-10-20T23:15:38.468Z,100.00
2022-10-20T23:18:08.142Z,100.00
2022-10-20T23:20:37.869Z,100.00
2022-10-20T23:23:07.606Z,100.00
2022-10-20T23:25:37.399Z,100.00
2022-10-20T23:28:07.471Z,100.00
2022-10-20T23:30:40.140Z,100.00
2022-10-20T23:33:09.812Z,100.00
2022-10-20T23:35:39.965Z,100.00
2022-10-20T23:38:11.342Z,100.00
2022-10-20T23:40:41.162Z,100.00
2022-10-20T23:43:10.855Z,100.00
2022-10-20T23:45:43.207Z,100.00
2022-10-20T23:48:13.842Z,100.00
2022-10-20T23:50:43.769Z,100.00
2022-10-20T23:53:13.816Z,100.00
2022-10-20T23:55:43.822Z,100.00
2022-10-20T23:58:13.966Z,100.00
